sensor_id;sensor_type;location;lat;lon;timestamp;pressure;altitude;pressure_sealevel;temperature;humidity
11648;BME280;5880;52.342;9.662;2022-10-18T00:01:49;101928.56;;;22.21;56.30
11648;BME280;5880;52.342;9.662;2022-10-18T00:04:15;101932.44;;;22.20;56.21
11648;BME280;5880;52.342;9.662;2022-10-18T00:06:40;101927.13;;;22.18;56.29
11648;BME280;5880;52.342;9.662;2022-10-18T00:09:06;101922.66;;;22.17;56.11
11648;BME280;5880;52.342;9.662;2022-10-18T00:11:32;101924.63;;;22.17;56.12
11648;BME280;5880;52.342;9.662;2022-10-18T00:13:57;101930.47;;;22.15;56.12
11648;BME280;5880;52.342;9.662;2022-10-18T00:16:23;101934.38;;;22.14;56.33
11648;BME280;5880;52.342;9.662;2022-10-18T00:18:49;101929.94;;;22.13;56.22
11648;BME280;5880;52.342;9.662;2022-10-18T00:21:19;101931.88;;;22.12;56.27
11648;BME280;5880;52.342;9.662;2022-10-18T00:23:47;101932.97;;;22.11;56.09
11648;BME280;5880;52.342;9.662;2022-10-18T00:26:23;101943.28;;;22.11;56.09
11648;BME280;5880;52.342;9.662;2022-10-18T00:28:56;101946.63;;;22.08;56.06
11648;BME280;5880;52.342;9.662;2022-10-18T00:31:26;101940.22;;;22.07;56.28
11648;BME280;5880;52.342;9.662;2022-10-18T00:33:59;101944.69;;;22.08;56.41
11648;BME280;5880;52.342;9.662;2022-10-18T00:36:28;101944.13;;;22.06;56.14
11648;BME280;5880;52.342;9.662;2022-10-18T00:38:54;101944.38;;;22.05;56.28
11648;BME280;5880;52.342;9.662;2022-10-18T00:41:24;101948.00;;;22.05;56.25
11648;BME280;5880;52.342;9.662;2022-10-18T00:44:01;101955.53;;;22.05;56.05
11648;BME280;5880;52.342;9.662;2022-10-18T00:46:34;101950.25;;;22.03;56.27
11648;BME280;5880;52.342;9.662;2022-10-18T00:49:17;101951.34;;;22.02;56.22
11648;BME280;5880;52.342;9.662;2022-10-18T00:51:56;101947.16;;;22.00;56.33
11648;BME280;5880;52.342;9.662;2022-10-18T00:54:24;101949.13;;;21.94;55.95
11648;BME280;5880;52.342;9.662;2022-10-18T00:56:51;101954.97;;;21.98;56.37
11648;BME280;5880;52.342;9.662;2022-10-18T00:59:18;101961.66;;;21.97;56.22
11648;BME280;5880;52.342;9.662;2022-10-18T01:01:45;101952.47;;;21.96;56.27
11648;BME280;5880;52.342;9.662;2022-10-18T01:04:13;101963.59;;;21.96;56.24
11648;BME280;5880;52.342;9.662;2022-10-18T01:09:57;101941.59;;;21.89;56.44
11648;BME280;5880;52.342;9.662;2022-10-18T01:18:40;101959.13;;;21.90;56.50
11648;BME280;5880;52.342;9.662;2022-10-18T01:32:31;101944.09;;;21.86;56.13
11648;BME280;5880;52.342;9.662;2022-10-18T01:35:06;101932.97;;;21.86;56.24
11648;BME280;5880;52.342;9.662;2022-10-18T01:37:35;101932.97;;;21.86;56.17
11648;BME280;5880;52.342;9.662;2022-10-18T01:40:04;101923.53;;;21.87;56.29
11648;BME280;5880;52.342;9.662;2022-10-18T01:42:31;101923.78;;;21.85;56.25
11648;BME280;5880;52.342;9.662;2022-10-18T01:45:00;101926.31;;;21.87;56.29
11648;BME280;5880;52.342;9.662;2022-10-18T01:47:27;101920.16;;;21.85;56.38
11648;BME280;5880;52.342;9.662;2022-10-18T01:50:03;101919.31;;;21.84;56.41
11648;BME280;5880;52.342;9.662;2022-10-18T01:52:29;101920.72;;;21.82;56.18
11648;BME280;5880;52.342;9.662;2022-10-18T01:54:57;101908.47;;;21.78;56.43
11648;BME280;5880;52.342;9.662;2022-10-18T01:57:44;101918.22;;;21.80;56.02
11648;BME280;5880;52.342;9.662;2022-10-18T02:00:18;101922.41;;;21.78;56.31
11648;BME280;5880;52.342;9.662;2022-10-18T02:08:42;101916.25;;;21.70;56.38
11648;BME280;5880;52.342;9.662;2022-10-18T02:11:13;101908.44;;;21.67;56.30
11648;BME280;5880;52.342;9.662;2022-10-18T02:13:48;101912.91;;;21.68;56.17
11648;BME280;5880;52.342;9.662;2022-10-18T02:16:24;101918.75;;;21.67;56.26
11648;BME280;5880;52.342;9.662;2022-10-18T02:19:09;101909.56;;;21.66;56.17
11648;BME280;5880;52.342;9.662;2022-10-18T02:21:42;101907.06;;;21.65;56.32
11648;BME280;5880;52.342;9.662;2022-10-18T02:24:11;101912.91;;;21.63;56.37
11648;BME280;5880;52.342;9.662;2022-10-18T02:26:38;101917.06;;;21.61;56.48
11648;BME280;5880;52.342;9.662;2022-10-18T02:29:04;101917.06;;;21.61;56.53
11648;BME280;5880;52.342;9.662;2022-10-18T02:31:43;101908.44;;;21.57;56.30
11648;BME280;5880;52.342;9.662;2022-10-18T02:35:18;101912.31;;;21.56;56.21
11648;BME280;5880;52.342;9.662;2022-10-18T02:37:47;101907.06;;;21.55;56.52
11648;BME280;5880;52.342;9.662;2022-10-18T02:40:15;101897.88;;;21.54;56.49
11648;BME280;5880;52.342;9.662;2022-10-18T02:42:53;101909.84;;;21.55;56.56
11648;BME280;5880;52.342;9.662;2022-10-18T02:45:20;101907.31;;;21.53;56.39
11648;BME280;5880;52.342;9.662;2022-10-18T02:47:46;101912.88;;;21.53;56.24
11648;BME280;5880;52.342;9.662;2022-10-18T02:50:12;101911.50;;;21.50;56.51
11648;BME280;5880;52.342;9.662;2022-10-18T02:52:39;101900.34;;;21.45;56.34
11648;BME280;5880;52.342;9.662;2022-10-18T02:55:06;101908.16;;;21.48;56.40
11648;BME280;5880;52.342;9.662;2022-10-18T02:57:32;101887.84;;;21.43;56.40
11648;BME280;5880;52.342;9.662;2022-10-18T02:59:58;101884.50;;;21.41;56.38
11648;BME280;5880;52.342;9.662;2022-10-18T03:02:24;101879.50;;;21.43;56.32
11648;BME280;5880;52.342;9.662;2022-10-18T03:04:49;101883.38;;;21.42;56.53
11648;BME280;5880;52.342;9.662;2022-10-18T03:07:15;101883.38;;;21.42;56.27
11648;BME280;5880;52.342;9.662;2022-10-18T03:09:41;101880.56;;;21.37;56.25
11648;BME280;5880;52.342;9.662;2022-10-18T03:12:07;101894.78;;;21.40;56.51
11648;BME280;5880;52.342;9.662;2022-10-18T03:14:33;101903.38;;;21.39;56.61
11648;BME280;5880;52.342;9.662;2022-10-18T03:16:58;101902.81;;;21.37;56.45
11648;BME280;5880;52.342;9.662;2022-10-18T03:19:24;101901.16;;;21.36;56.67
11648;BME280;5880;52.342;9.662;2022-10-18T03:21:50;101889.47;;;21.34;56.42
11648;BME280;5880;52.342;9.662;2022-10-18T03:24:15;101892.22;;;21.34;56.42
11648;BME280;5880;52.342;9.662;2022-10-18T03:26:41;101896.09;;;21.33;56.50
11648;BME280;5880;52.342;9.662;2022-10-18T03:29:09;101884.72;;;21.29;56.66
11648;BME280;5880;52.342;9.662;2022-10-18T03:31:34;101890.00;;;21.31;56.44
11648;BME280;5880;52.342;9.662;2022-10-18T03:34:00;101892.78;;;21.31;56.59
11648;BME280;5880;52.342;9.662;2022-10-18T03:36:26;101888.31;;;21.29;56.35
11648;BME280;5880;52.342;9.662;2022-10-18T03:38:52;101895.84;;;21.29;56.48
11648;BME280;5880;52.342;9.662;2022-10-18T03:41:17;101892.22;;;21.28;56.55
11648;BME280;5880;52.342;9.662;2022-10-18T03:43:45;101894.16;;;21.28;56.53
11648;BME280;5880;52.342;9.662;2022-10-18T03:46:11;101879.41;;;21.27;56.78
11648;BME280;5880;52.342;9.662;2022-10-18T03:48:37;101878.59;;;21.27;56.65
11648;BME280;5880;52.342;9.662;2022-10-18T03:51:03;101877.75;;;21.26;56.61
11648;BME280;5880;52.342;9.662;2022-10-18T03:53:28;101874.16;;;21.26;56.81
11648;BME280;5880;52.342;9.662;2022-10-18T03:55:55;101875.25;;;21.25;56.56
11648;BME280;5880;52.342;9.662;2022-10-18T03:58:22;101879.16;;;21.24;56.67
11648;BME280;5880;52.342;9.662;2022-10-18T04:00:52;101870.81;;;21.24;56.50
11648;BME280;5880;52.342;9.662;2022-10-18T04:03:19;101872.19;;;21.21;56.77
11648;BME280;5880;52.342;9.662;2022-10-18T04:05:46;101865.78;;;21.21;56.62
11648;BME280;5880;52.342;9.662;2022-10-18T04:08:13;101875.25;;;21.20;56.69
11648;BME280;5880;52.342;9.662;2022-10-18T04:10:39;101875.25;;;21.20;56.66
11648;BME280;5880;52.342;9.662;2022-10-18T04:13:06;101871.63;;;21.19;56.72
11648;BME280;5880;52.342;9.662;2022-10-18T04:15:33;101883.84;;;21.18;56.90
11648;BME280;5880;52.342;9.662;2022-10-18T04:18:00;101877.44;;;21.18;56.87
11648;BME280;5880;52.342;9.662;2022-10-18T04:20:26;101887.75;;;21.17;56.89
11648;BME280;5880;52.342;9.662;2022-10-18T04:22:52;101882.75;;;21.14;56.84
11648;BME280;5880;52.342;9.662;2022-10-18T04:25:20;101881.63;;;21.15;56.90
11648;BME280;5880;52.342;9.662;2022-10-18T04:27:46;101895.53;;;21.15;56.74
11648;BME280;5880;52.342;9.662;2022-10-18T04:30:11;101880.22;;;21.13;56.72
11648;BME280;5880;52.342;9.662;2022-10-18T04:32:37;101873.28;;;21.10;56.81
11648;BME280;5880;52.342;9.662;2022-10-18T04:35:04;101880.22;;;21.13;56.68
11648;BME280;5880;52.342;9.662;2022-10-18T04:37:31;101880.22;;;21.13;56.62
11648;BME280;5880;52.342;9.662;2022-10-18T04:39:57;101877.69;;;21.11;56.73
11648;BME280;5880;52.342;9.662;2022-10-18T04:42:23;101869.66;;;21.10;56.61
11648;BME280;5880;52.342;9.662;2022-10-18T04:44:49;101884.38;;;21.10;56.54
11648;BME280;5880;52.342;9.662;2022-10-18T04:47:15;101876.31;;;21.08;56.93
11648;BME280;5880;52.342;9.662;2022-10-18T04:49:41;101871.31;;;21.05;56.71
11648;BME280;5880;52.342;9.662;2022-10-18T04:52:07;101874.59;;;21.02;56.95
11648;BME280;5880;52.342;9.662;2022-10-18T04:54:33;101873.78;;;21.02;56.88
11648;BME280;5880;52.342;9.662;2022-10-18T04:56:59;101880.47;;;21.01;56.73
11648;BME280;5880;52.342;9.662;2022-10-18T04:59:25;101883.50;;;20.99;56.58
11648;BME280;5880;52.342;9.662;2022-10-18T05:01:50;101885.72;;;20.97;56.82
11648;BME280;5880;52.342;9.662;2022-10-18T05:04:16;101891.28;;;20.97;56.52
11648;BME280;5880;52.342;9.662;2022-10-18T05:06:42;101889.63;;;20.96;56.82
11648;BME280;5880;52.342;9.662;2022-10-18T05:09:07;101889.88;;;20.95;56.67
11648;BME280;5880;52.342;9.662;2022-10-18T05:11:33;101889.03;;;20.94;56.90
11648;BME280;5880;52.342;9.662;2022-10-18T05:13:59;101892.94;;;20.93;56.74
11648;BME280;5880;52.342;9.662;2022-10-18T05:16:24;101904.88;;;20.94;56.67
11648;BME280;5880;52.342;9.662;2022-10-18T05:18:50;101902.38;;;20.92;56.90
11648;BME280;5880;52.342;9.662;2022-10-18T05:21:16;101893.47;;;20.90;56.94
11648;BME280;5880;52.342;9.662;2022-10-18T05:23:41;101898.19;;;20.90;56.75
11648;BME280;5880;52.342;9.662;2022-10-18T05:26:07;101900.16;;;20.89;56.64
11648;BME280;5880;52.342;9.662;2022-10-18T05:28:34;101902.09;;;20.89;56.78
11648;BME280;5880;52.342;9.662;2022-10-18T05:31:05;101901.22;;;20.88;56.89
11648;BME280;5880;52.342;9.662;2022-10-18T05:33:31;101903.44;;;20.86;57.01
11648;BME280;5880;52.342;9.662;2022-10-18T05:35:57;101904.56;;;20.85;56.80
11648;BME280;5880;52.342;9.662;2022-10-18T05:38:24;101909.28;;;20.84;56.67
11648;BME280;5880;52.342;9.662;2022-10-18T05:40:50;101906.50;;;20.84;56.80
11648;BME280;5880;52.342;9.662;2022-10-18T05:43:16;101908.47;;;20.84;56.74
11648;BME280;5880;52.342;9.662;2022-10-18T05:45:49;101912.06;;;20.84;56.89
11648;BME280;5880;52.342;9.662;2022-10-18T05:48:16;101903.16;;;20.82;56.93
11648;BME280;5880;52.342;9.662;2022-10-18T05:50:42;101905.94;;;20.82;57.11
11648;BME280;5880;52.342;9.662;2022-10-18T05:53:08;101907.06;;;20.81;56.92
11648;BME280;5880;52.342;9.662;2022-10-18T05:55:34;101907.06;;;20.81;56.98
11648;BME280;5880;52.342;9.662;2022-10-18T05:58:00;101906.19;;;20.81;56.96
11648;BME280;5880;52.342;9.662;2022-10-18T06:00:27;101917.59;;;20.79;57.04
11648;BME280;5880;52.342;9.662;2022-10-18T06:02:52;101920.09;;;20.81;57.16
11648;BME280;5880;52.342;9.662;2022-10-18T06:05:18;101925.66;;;20.81;57.28
11648;BME280;5880;52.342;9.662;2022-10-18T06:07:44;101929.56;;;20.80;56.97
11648;BME280;5880;52.342;9.662;2022-10-18T06:10:09;101932.31;;;20.80;57.04
11648;BME280;5880;52.342;9.662;2022-10-18T06:12:35;101923.69;;;20.76;56.97
11648;BME280;5880;52.342;9.662;2022-10-18T06:15:01;101935.09;;;20.80;57.17
11648;BME280;5880;52.342;9.662;2022-10-18T06:17:27;101933.41;;;20.79;56.95
11648;BME280;5880;52.342;9.662;2022-10-18T06:19:52;101938.44;;;20.77;57.26
11648;BME280;5880;52.342;9.662;2022-10-18T06:22:18;101944.00;;;20.77;57.20
11648;BME280;5880;52.342;9.662;2022-10-18T06:24:43;101940.63;;;20.75;57.09
11648;BME280;5880;52.342;9.662;2022-10-18T06:27:09;101949.81;;;20.75;57.28
11648;BME280;5880;52.342;9.662;2022-10-18T06:29:37;101946.78;;;20.77;57.01
11648;BME280;5880;52.342;9.662;2022-10-18T06:32:05;101946.19;;;20.75;57.35
11648;BME280;5880;52.342;9.662;2022-10-18T06:34:31;101953.66;;;20.74;57.04
11648;BME280;5880;52.342;9.662;2022-10-18T06:36:57;101956.44;;;20.74;57.32
11648;BME280;5880;52.342;9.662;2022-10-18T06:39:23;101950.06;;;20.74;57.51
11648;BME280;5880;52.342;9.662;2022-10-18T06:41:49;101952.00;;;20.73;57.11
11648;BME280;5880;52.342;9.662;2022-10-18T06:44:15;101946.44;;;20.73;57.54
11648;BME280;5880;52.342;9.662;2022-10-18T06:46:45;101950.34;;;20.72;57.36
11648;BME280;5880;52.342;9.662;2022-10-18T06:49:12;101953.97;;;20.73;57.31
11648;BME280;5880;52.342;9.662;2022-10-18T06:51:40;101961.19;;;20.74;57.53
11648;BME280;5880;52.342;9.662;2022-10-18T06:54:07;101963.13;;;20.73;57.69
11648;BME280;5880;52.342;9.662;2022-10-18T06:56:34;101958.97;;;20.76;57.37
11648;BME280;5880;52.342;9.662;2022-10-18T06:59:00;101954.53;;;20.75;57.44
11648;BME280;5880;52.342;9.662;2022-10-18T07:01:26;101955.38;;;20.75;57.76
11648;BME280;5880;52.342;9.662;2022-10-18T07:03:53;101955.38;;;20.75;57.83
11648;BME280;5880;52.342;9.662;2022-10-18T07:06:20;101949.53;;;20.77;57.70
11648;BME280;5880;52.342;9.662;2022-10-18T07:08:48;101953.97;;;20.78;57.75
11648;BME280;5880;52.342;9.662;2022-10-18T07:11:21;101957.34;;;20.80;57.60
11648;BME280;5880;52.342;9.662;2022-10-18T07:13:52;101957.59;;;20.78;57.66
11648;BME280;5880;52.342;9.662;2022-10-18T07:16:25;101956.50;;;20.79;57.69
11648;BME280;5880;52.342;9.662;2022-10-18T07:18:51;101962.63;;;20.81;58.02
11648;BME280;5880;52.342;9.662;2022-10-18T07:21:20;101956.78;;;20.83;57.71
11648;BME280;5880;52.342;9.662;2022-10-18T07:23:46;101961.25;;;20.84;57.86
11648;BME280;5880;52.342;9.662;2022-10-18T07:28:47;101961.78;;;20.86;57.74
11648;BME280;5880;52.342;9.662;2022-10-18T07:31:15;101965.44;;;20.86;58.09
11648;BME280;5880;52.342;9.662;2022-10-18T07:33:40;101956.25;;;20.86;58.07
11648;BME280;5880;52.342;9.662;2022-10-18T07:36:09;101957.38;;;20.90;57.98
11648;BME280;5880;52.342;9.662;2022-10-18T07:38:35;101955.44;;;20.91;58.44
11648;BME280;5880;52.342;9.662;2022-10-18T07:41:04;101959.63;;;20.93;58.17
11648;BME280;5880;52.342;9.662;2022-10-18T07:43:32;101949.06;;;20.95;58.51
11648;BME280;5880;52.342;9.662;2022-10-18T07:46:02;101951.59;;;20.97;58.63
11648;BME280;5880;52.342;9.662;2022-10-18T07:48:29;101957.72;;;20.99;58.46
11648;BME280;5880;52.342;9.662;2022-10-18T07:50:58;101959.09;;;21.01;58.47
11648;BME280;5880;52.342;9.662;2022-10-18T07:53:26;101963.28;;;21.04;58.70
11648;BME280;5880;52.342;9.662;2022-10-18T07:56:00;101970.00;;;21.08;58.71
11648;BME280;5880;52.342;9.662;2022-10-18T07:58:26;101977.22;;;21.09;58.45
11648;BME280;5880;52.342;9.662;2022-10-18T08:00:53;101976.13;;;21.10;58.45
11648;BME280;5880;52.342;9.662;2022-10-18T08:03:19;101974.44;;;21.09;58.69
11648;BME280;5880;52.342;9.662;2022-10-18T08:05:54;101973.94;;;21.17;58.73
11648;BME280;5880;52.342;9.662;2022-10-18T08:08:22;101972.53;;;21.20;58.89
11648;BME280;5880;52.342;9.662;2022-10-18T08:10:48;101969.78;;;21.25;59.14
11648;BME280;5880;52.342;9.662;2022-10-18T08:13:14;101979.00;;;21.31;59.36
11648;BME280;5880;52.342;9.662;2022-10-18T08:15:40;101982.88;;;21.35;59.28
11648;BME280;5880;52.342;9.662;2022-10-18T08:18:06;101967.31;;;21.39;59.25
11648;BME280;5880;52.342;9.662;2022-10-18T08:20:31;101969.06;;;21.45;59.42
11648;BME280;5880;52.342;9.662;2022-10-18T08:22:58;101964.59;;;21.49;59.42
11648;BME280;5880;52.342;9.662;2022-10-18T08:25:24;101968.25;;;21.55;59.25
11648;BME280;5880;52.342;9.662;2022-10-18T08:27:50;101964.91;;;21.58;59.44
11648;BME280;5880;52.342;9.662;2022-10-18T08:30:16;101963.25;;;21.62;59.31
11648;BME280;5880;52.342;9.662;2022-10-18T08:32:42;101957.97;;;21.65;59.00
11648;BME280;5880;52.342;9.662;2022-10-18T08:35:08;101960.75;;;21.65;59.08
11648;BME280;5880;52.342;9.662;2022-10-18T08:37:33;101963.81;;;21.64;59.02
11648;BME280;5880;52.342;9.662;2022-10-18T08:39:59;101974.41;;;21.67;58.90
11648;BME280;5880;52.342;9.662;2022-10-18T08:42:55;101977.75;;;21.69;58.61
11648;BME280;5880;52.342;9.662;2022-10-18T08:45:25;101975.22;;;21.67;59.08
11648;BME280;5880;52.342;9.662;2022-10-18T08:47:54;101980.78;;;21.67;58.96
11648;BME280;5880;52.342;9.662;2022-10-18T08:50:29;101976.91;;;21.68;58.75
11648;BME280;5880;52.342;9.662;2022-10-18T08:56:12;101984.41;;;21.68;58.43
11648;BME280;5880;52.342;9.662;2022-10-18T08:58:43;101983.88;;;21.66;58.79
11648;BME280;5880;52.342;9.662;2022-10-18T09:01:32;101989.97;;;21.68;58.69
11648;BME280;5880;52.342;9.662;2022-10-18T09:04:32;101990.25;;;21.66;58.54
11648;BME280;5880;52.342;9.662;2022-10-18T09:10:34;101994.44;;;21.64;58.76
11648;BME280;5880;52.342;9.662;2022-10-18T09:16:14;101993.03;;;21.61;58.69
11648;BME280;5880;52.342;9.662;2022-10-18T09:18:58;101999.44;;;21.62;58.56
11648;BME280;5880;52.342;9.662;2022-10-18T09:21:52;102005.25;;;21.60;58.54
11648;BME280;5880;52.342;9.662;2022-10-18T09:24:45;102013.03;;;21.58;58.51
11648;BME280;5880;52.342;9.662;2022-10-18T09:27:18;102016.94;;;21.57;58.63
11648;BME280;5880;52.342;9.662;2022-10-18T09:30:02;102003.59;;;21.54;58.75
11648;BME280;5880;52.342;9.662;2022-10-18T09:33:05;102016.09;;;21.57;58.47
11648;BME280;5880;52.342;9.662;2022-10-18T09:35:53;102025.53;;;21.56;58.73
11648;BME280;5880;52.342;9.662;2022-10-18T09:38:26;102011.94;;;21.54;58.70
11648;BME280;5880;52.342;9.662;2022-10-18T09:41:07;102017.19;;;21.56;58.53
11648;BME280;5880;52.342;9.662;2022-10-18T09:43:47;102027.50;;;21.55;58.70
11648;BME280;5880;52.342;9.662;2022-10-18T09:46:16;102022.75;;;21.56;58.78
11648;BME280;5880;52.342;9.662;2022-10-18T09:48:57;102027.81;;;21.59;58.54
11648;BME280;5880;52.342;9.662;2022-10-18T09:51:33;102024.72;;;21.60;58.62
11648;BME280;5880;52.342;9.662;2022-10-18T09:54:53;102025.28;;;21.62;58.87
11648;BME280;5880;52.342;9.662;2022-10-18T09:57:09;102032.25;;;21.65;58.92
11648;BME280;5880;52.342;9.662;2022-10-18T09:59:46;102017.78;;;21.68;58.92
11648;BME280;5880;52.342;9.662;2022-10-18T10:02:16;102027.00;;;21.68;58.96
11648;BME280;5880;52.342;9.662;2022-10-18T10:04:42;102023.41;;;21.73;58.77
11648;BME280;5880;52.342;9.662;2022-10-18T10:07:16;102024.78;;;21.76;58.90
11648;BME280;5880;52.342;9.662;2022-10-18T10:09:56;102023.66;;;21.77;58.38
11648;BME280;5880;52.342;9.662;2022-10-18T10:12:40;102023.66;;;21.77;58.67
11648;BME280;5880;52.342;9.662;2022-10-18T10:15:21;102028.66;;;21.75;58.75
11648;BME280;5880;52.342;9.662;2022-10-18T10:18:29;102030.63;;;21.74;58.55
11648;BME280;5880;52.342;9.662;2022-10-18T10:20:59;102031.69;;;21.68;58.51
11648;BME280;5880;52.342;9.662;2022-10-18T10:23:38;102042.56;;;21.75;58.47
11648;BME280;5880;52.342;9.662;2022-10-18T10:26:30;102041.75;;;21.74;58.73
11648;BME280;5880;52.342;9.662;2022-10-18T10:28:57;102040.91;;;21.74;58.67
11648;BME280;5880;52.342;9.662;2022-10-18T10:31:30;102045.09;;;21.76;58.48
11648;BME280;5880;52.342;9.662;2022-10-18T10:34:19;102044.78;;;21.73;58.34
11648;BME280;5880;52.342;9.662;2022-10-18T10:36:50;102047.88;;;21.76;58.44
11648;BME280;5880;52.342;9.662;2022-10-18T10:39:19;102049.28;;;21.79;58.58
11648;BME280;5880;52.342;9.662;2022-10-18T10:41:55;102038.44;;;21.82;58.46
11648;BME280;5880;52.342;9.662;2022-10-18T10:44:31;102037.06;;;21.85;58.51
11648;BME280;5880;52.342;9.662;2022-10-18T10:46:58;102032.59;;;21.89;58.63
11648;BME280;5880;52.342;9.662;2022-10-18T10:49:41;102029.84;;;21.94;58.36
11648;BME280;5880;52.342;9.662;2022-10-18T10:52:18;102022.06;;;21.96;58.28
11648;BME280;5880;52.342;9.662;2022-10-18T10:54:46;102023.16;;;22.00;58.43
11648;BME280;5880;52.342;9.662;2022-10-18T10:59:47;102030.69;;;22.10;58.25
11648;BME280;5880;52.342;9.662;2022-10-18T11:04:53;102036.00;;;22.17;57.69
11648;BME280;5880;52.342;9.662;2022-10-18T11:07:40;102039.06;;;22.20;57.67
11648;BME280;5880;52.342;9.662;2022-10-18T11:12:42;102032.97;;;22.23;57.42
11648;BME280;5880;52.342;9.662;2022-10-18T11:18:09;102024.31;;;22.20;56.99
11648;BME280;5880;52.342;9.662;2022-10-18T11:20:55;102030.16;;;22.18;57.18
11648;BME280;5880;52.342;9.662;2022-10-18T11:23:31;102025.69;;;22.17;57.35
11648;BME280;5880;52.342;9.662;2022-10-18T11:32:38;102016.25;;;22.23;57.37
11648;BME280;5880;52.342;9.662;2022-10-18T11:38:12;102009.31;;;22.26;57.56
11648;BME280;5880;52.342;9.662;2022-10-18T11:40:49;102003.19;;;22.29;57.44
11648;BME280;5880;52.342;9.662;2022-10-18T11:43:58;101998.16;;;22.31;57.48
11648;BME280;5880;52.342;9.662;2022-10-18T11:50:17;102009.31;;;22.36;57.19
11648;BME280;5880;52.342;9.662;2022-10-18T11:59:17;101999.81;;;22.47;57.00
11648;BME280;5880;52.342;9.662;2022-10-18T12:02:29;102000.38;;;22.49;56.87
11648;BME280;5880;52.342;9.662;2022-10-18T12:05:02;101988.16;;;22.50;56.85
11648;BME280;5880;52.342;9.662;2022-10-18T12:07:36;101996.50;;;22.55;56.60
11648;BME280;5880;52.342;9.662;2022-10-18T12:10:07;102006.78;;;22.60;56.40
11648;BME280;5880;52.342;9.662;2022-10-18T12:12:50;102000.94;;;22.62;56.24
11648;BME280;5880;52.342;9.662;2022-10-18T12:15:22;101996.22;;;22.62;55.94
11648;BME280;5880;52.342;9.662;2022-10-18T12:17:53;101999.56;;;22.64;55.92
11648;BME280;5880;52.342;9.662;2022-10-18T12:20:32;101984.22;;;22.62;55.78
11648;BME280;5880;52.342;9.662;2022-10-18T12:23:04;101998.69;;;22.64;55.27
11648;BME280;5880;52.342;9.662;2022-10-18T12:25:45;101991.72;;;22.61;55.23
11648;BME280;5880;52.342;9.662;2022-10-18T12:28:47;101981.97;;;22.64;55.10
11648;BME280;5880;52.342;9.662;2022-10-18T12:31:26;101996.47;;;22.66;55.34
11648;BME280;5880;52.342;9.662;2022-10-18T12:34:04;101982.25;;;22.67;55.33
11648;BME280;5880;52.342;9.662;2022-10-18T12:39:48;101990.88;;;22.71;55.07
11648;BME280;5880;52.342;9.662;2022-10-18T12:42:23;101978.06;;;22.75;55.00
11648;BME280;5880;52.342;9.662;2022-10-18T12:47:45;101981.97;;;22.79;54.86
11648;BME280;5880;52.342;9.662;2022-10-18T12:50:37;101977.19;;;22.85;54.63
11648;BME280;5880;52.342;9.662;2022-10-18T12:53:18;101983.31;;;22.87;54.59
11648;BME280;5880;52.342;9.662;2022-10-18T12:55:48;101981.66;;;22.91;54.39
11648;BME280;5880;52.342;9.662;2022-10-18T12:58:26;101983.03;;;22.93;54.11
11648;BME280;5880;52.342;9.662;2022-10-18T13:01:03;101989.16;;;22.95;53.89
11648;BME280;5880;52.342;9.662;2022-10-18T13:03:52;101995.28;;;22.97;53.68
11648;BME280;5880;52.342;9.662;2022-10-18T13:06:19;101992.50;;;22.97;53.69
11648;BME280;5880;52.342;9.662;2022-10-18T13:08:44;101988.63;;;22.99;53.45
11648;BME280;5880;52.342;9.662;2022-10-18T13:11:30;101983.03;;;22.99;53.25
11648;BME280;5880;52.342;9.662;2022-10-18T13:19:50;101991.66;;;22.92;52.62
11648;BME280;5880;52.342;9.662;2022-10-18T13:33:40;102003.13;;;22.80;52.00
11648;BME280;5880;52.342;9.662;2022-10-18T13:44:28;102006.22;;;22.79;51.38
11648;BME280;5880;52.342;9.662;2022-10-18T13:50:09;101995.91;;;22.79;51.58
11648;BME280;5880;52.342;9.662;2022-10-18T13:53:00;102005.09;;;22.80;51.47
11648;BME280;5880;52.342;9.662;2022-10-18T13:55:56;101997.03;;;22.78;51.41
11648;BME280;5880;52.342;9.662;2022-10-18T13:58:42;102003.44;;;22.79;51.29
11648;BME280;5880;52.342;9.662;2022-10-18T14:01:25;102015.41;;;22.79;51.03
11648;BME280;5880;52.342;9.662;2022-10-18T14:04:36;102021.56;;;22.76;51.08
11648;BME280;5880;52.342;9.662;2022-10-18T14:07:06;102025.72;;;22.73;50.64
11648;BME280;5880;52.342;9.662;2022-10-18T14:09:48;102019.03;;;22.74;50.69
11648;BME280;5880;52.342;9.662;2022-10-18T14:12:39;102021.25;;;22.72;50.68
11648;BME280;5880;52.342;9.662;2022-10-18T14:15:22;102021.25;;;22.72;50.32
11648;BME280;5880;52.342;9.662;2022-10-18T14:18:20;102024.06;;;22.72;50.42
11648;BME280;5880;52.342;9.662;2022-10-18T14:20:58;102026.56;;;22.69;50.20
11648;BME280;5880;52.342;9.662;2022-10-18T14:23:34;102030.75;;;22.71;50.43
11648;BME280;5880;52.342;9.662;2022-10-18T14:26:14;102031.84;;;22.75;50.08
11648;BME280;5880;52.342;9.662;2022-10-18T14:28:40;102031.31;;;22.73;50.04
11648;BME280;5880;52.342;9.662;2022-10-18T14:31:13;102031.84;;;22.75;49.72
11648;BME280;5880;52.342;9.662;2022-10-18T14:33:45;102036.31;;;22.76;49.44
11648;BME280;5880;52.342;9.662;2022-10-18T14:38:52;102041.59;;;22.73;49.36
11648;BME280;5880;52.342;9.662;2022-10-18T14:41:31;102037.72;;;22.74;49.18
11648;BME280;5880;52.342;9.662;2022-10-18T14:44:18;102028.53;;;22.73;49.25
11648;BME280;5880;52.342;9.662;2022-10-18T14:47:01;102029.38;;;22.69;49.21
11648;BME280;5880;52.342;9.662;2022-10-18T14:49:27;102038.25;;;22.71;49.20
11648;BME280;5880;52.342;9.662;2022-10-18T14:51:59;102037.16;;;22.72;49.10
11648;BME280;5880;52.342;9.662;2022-10-18T14:54:31;102038.81;;;22.73;49.09
11648;BME280;5880;52.342;9.662;2022-10-18T14:56:58;102046.34;;;22.72;48.90
11648;BME280;5880;52.342;9.662;2022-10-18T15:02:36;102041.06;;;22.66;48.62
11648;BME280;5880;52.342;9.662;2022-10-18T15:05:17;102038.84;;;22.58;48.40
11648;BME280;5880;52.342;9.662;2022-10-18T15:07:46;102042.47;;;22.53;48.13
11648;BME280;5880;52.342;9.662;2022-10-18T15:10:23;102044.41;;;22.52;47.93
11648;BME280;5880;52.342;9.662;2022-10-18T15:12:50;102044.38;;;22.47;48.09
11648;BME280;5880;52.342;9.662;2022-10-18T15:15:24;102053.88;;;22.46;47.82